createdAt,value
2022-08-09T00:02:35.000Z,7.88
2022-08-09T00:07:39.000Z,8.2
2022-08-09T00:12:44.000Z,8.2
2022-08-09T00:18:21.000Z,7.52
2022-08-09T00:22:45.000Z,7.52
2022-08-09T00:27:37.000Z,7.03
2022-08-09T00:32:37.000Z,7.52
2022-08-09T00:37:40.000Z,8.06
2022-08-09T00:44:37.000Z,9.09
2022-08-09T00:52:40.000Z,8.57
2022-08-09T00:57:45.000Z,7.58
2022-08-09T01:02:36.000Z,7.58
2022-08-09T01:08:09.000Z,7.91
2022-08-09T01:12:36.000Z,7.61
2022-08-09T01:17:40.000Z,7.36
2022-08-09T01:22:35.000Z,8.31
2022-08-09T01:27:35.000Z,8.74
2022-08-09T01:42:35.000Z,9.78
2022-08-09T01:47:41.000Z,10.18
2022-08-09T01:52:36.000Z,9.6
2022-08-09T02:02:41.000Z,9.64
2022-08-09T02:09:04.000Z,9.28
2022-08-09T02:18:17.000Z,9.92
2022-08-09T02:22:45.000Z,9.92
2022-08-09T02:28:08.000Z,10.27
2022-08-09T02:32:37.000Z,10.3
2022-08-09T02:37:42.000Z,10.37
2022-08-09T02:47:35.000Z,10.37
2022-08-09T02:52:39.000Z,11.19
2022-08-09T02:57:35.000Z,11.19
2022-08-09T03:02:37.000Z,10.73
2022-08-09T03:07:35.000Z,11.84
2022-08-09T03:12:35.000Z,12.1
2022-08-09T03:17:37.000Z,15.22
2022-08-09T03:22:51.000Z,14.67
2022-08-09T03:27:35.000Z,15.82
2022-08-09T03:32:36.000Z,15.75
2022-08-09T03:38:08.000Z,17.67
2022-08-09T03:42:40.000Z,17.67
2022-08-09T03:47:36.000Z,16.29
2022-08-09T03:52:38.000Z,17.34
2022-08-09T03:57:35.000Z,16.61
2022-08-09T04:02:40.000Z,17.79
2022-08-09T04:08:03.000Z,17.57
2022-08-09T04:12:41.000Z,17.14
2022-08-09T04:17:35.000Z,18.39
2022-08-09T04:22:38.000Z,24.23
2022-08-09T04:27:34.000Z,24.23
2022-08-09T04:32:47.000Z,21.26
2022-08-09T04:37:56.000Z,19.12
2022-08-09T04:42:39.000Z,18.1
2022-08-09T04:47:43.000Z,16.59
2022-08-09T04:52:37.000Z,17.23
2022-08-09T05:02:37.000Z,16
2022-08-09T05:07:39.000Z,16.39
2022-08-09T05:12:34.000Z,17.15
2022-08-09T05:18:52.000Z,18.39
2022-08-09T05:27:35.000Z,16.62
2022-08-09T05:32:35.000Z,17.21
2022-08-09T05:37:36.000Z,16.39
2022-08-09T05:42:38.000Z,16.1
2022-08-09T05:47:40.000Z,17.22
2022-08-09T05:52:35.000Z,16.21
2022-08-09T05:58:06.000Z,17.23
2022-08-09T06:02:35.000Z,17.23
2022-08-09T06:07:37.000Z,15.45
2022-08-09T06:12:36.000Z,15.95
2022-08-09T06:17:35.000Z,14.81
2022-08-09T06:22:42.000Z,18.01
2022-08-09T06:27:52.000Z,15.53
2022-08-09T06:33:40.000Z,15.25
2022-08-09T06:42:43.000Z,14.85
2022-08-09T06:47:40.000Z,13.2
2022-08-09T06:52:35.000Z,14.39
2022-08-09T06:57:52.000Z,14.27
2022-08-09T07:02:41.000Z,15.12
2022-08-09T07:08:09.000Z,14.85
2022-08-09T07:12:52.000Z,14.84
2022-08-09T07:17:35.000Z,14.84
2022-08-09T07:22:53.000Z,13.8
2022-08-09T07:27:44.000Z,14.03
2022-08-09T07:32:44.000Z,14.64
2022-08-09T07:42:43.000Z,17.38
2022-08-09T07:47:35.000Z,16.09
2022-08-09T07:52:35.000Z,16.09
2022-08-09T07:57:46.000Z,16.86
2022-08-09T08:02:36.000Z,16.66
2022-08-09T08:08:56.000Z,15.28
2022-08-09T08:18:04.000Z,18.78
2022-08-09T08:22:39.000Z,15.83
2022-08-09T08:27:36.000Z,17.15
2022-08-09T08:32:39.000Z,18.01
2022-08-09T08:37:52.000Z,18.35
2022-08-09T08:42:42.000Z,18.35
2022-08-09T08:47:37.000Z,60.27
2022-08-09T08:53:08.000Z,20.65
2022-08-09T08:57:38.000Z,20.34
2022-08-09T09:02:41.000Z,25.29
2022-08-09T09:07:34.000Z,19.9
2022-08-09T09:12:39.000Z,19.25
2022-08-09T09:17:58.000Z,20.49
2022-08-09T09:22:38.000Z,20.49
2022-08-09T09:28:17.000Z,37.32
2022-08-09T09:32:45.000Z,18.54
2022-08-09T09:37:42.000Z,16.97
2022-08-09T09:42:35.000Z,17.78
2022-08-09T09:47:38.000Z,16.74
2022-08-09T09:52:47.000Z,18.53
2022-08-09T09:58:26.000Z,20.08
2022-08-09T10:02:36.000Z,20.08
2022-08-09T10:07:34.000Z,19.84
2022-08-09T10:12:41.000Z,21.32
2022-08-09T10:18:06.000Z,20.31
2022-08-09T10:22:42.000Z,22.07
2022-08-09T10:27:44.000Z,22.3
2022-08-09T10:32:52.000Z,22.8
2022-08-09T10:37:37.000Z,22.88
2022-08-09T10:42:37.000Z,23.03
2022-08-09T10:48:39.000Z,23.14
2022-08-09T10:57:40.000Z,21.94
2022-08-09T11:03:37.000Z,24.74
2022-08-09T11:12:35.000Z,23.38
2022-08-09T11:17:34.000Z,23.38
2022-08-09T11:22:35.000Z,23.18
2022-08-09T11:28:16.000Z,23.16
2022-08-09T11:32:35.000Z,22.33
2022-08-09T11:37:38.000Z,21.18
2022-08-09T11:42:36.000Z,21.56
2022-08-09T11:47:35.000Z,21.2
2022-08-09T11:54:10.000Z,22.29
2022-08-09T12:02:47.000Z,23.08
2022-08-09T12:07:36.000Z,23.08
2022-08-09T12:12:39.000Z,21.72
2022-08-09T12:17:54.000Z,20.62
2022-08-09T12:22:36.000Z,22.06
2022-08-09T12:29:33.000Z,24.24
2022-08-09T12:37:39.000Z,21.76
2022-08-09T12:42:35.000Z,21.76
2022-08-09T12:47:35.000Z,23.98
2022-08-09T12:53:02.000Z,23.89
2022-08-09T12:57:35.000Z,22.32
2022-08-09T13:02:36.000Z,23.62
2022-08-09T13:08:00.000Z,25.77
2022-08-09T13:12:35.000Z,23.69
2022-08-09T13:18:15.000Z,23.09
2022-08-09T13:22:55.000Z,23.09
2022-08-09T13:27:39.000Z,24.47
2022-08-09T13:32:39.000Z,24.21
2022-08-09T13:38:02.000Z,24.36
2022-08-09T13:42:36.000Z,22.7
2022-08-09T13:48:00.000Z,24.1
2022-08-09T13:52:34.000Z,25.13
2022-08-09T13:57:50.000Z,24.34
2022-08-09T14:02:36.000Z,26.41
2022-08-09T14:07:40.000Z,26.41
2022-08-09T14:12:36.000Z,30.23
2022-08-09T14:17:42.000Z,23.23
2022-08-09T14:22:34.000Z,22.36
2022-08-09T14:27:36.000Z,36.21
2022-08-09T14:32:41.000Z,24.93
2022-08-09T14:37:51.000Z,25.21
2022-08-09T14:42:50.000Z,24.98
2022-08-09T14:47:56.000Z,24.98
2022-08-09T14:52:35.000Z,23.76
2022-08-09T14:57:52.000Z,23.81
2022-08-09T15:02:34.000Z,21.16
2022-08-09T15:07:34.000Z,22.37
2022-08-09T15:12:37.000Z,22.51
2022-08-09T15:17:36.000Z,22.82
2022-08-09T15:22:36.000Z,24.52
2022-08-09T15:27:37.000Z,32.57
2022-08-09T15:32:40.000Z,32.57
2022-08-09T15:38:07.000Z,26.86
2022-08-09T15:42:35.000Z,26.77
2022-08-09T15:48:10.000Z,22.75
2022-08-09T15:52:35.000Z,25.05
2022-08-09T15:57:53.000Z,26.56
2022-08-09T16:02:37.000Z,25.09
2022-08-09T16:07:35.000Z,23.32
2022-08-09T16:12:41.000Z,24.53
2022-08-09T16:17:39.000Z,24.53
2022-08-09T16:22:37.000Z,30.38
2022-08-09T16:27:39.000Z,26.7
2022-08-09T16:32:45.000Z,25.62
2022-08-09T16:38:06.000Z,27.42
2022-08-09T16:42:36.000Z,32.21
2022-08-09T16:48:55.000Z,34.17
2022-08-09T16:57:35.000Z,34.17
2022-08-09T17:02:35.000Z,35.13
2022-08-09T17:08:58.000Z,30.23
2022-08-09T17:17:37.000Z,28.2
2022-08-09T17:22:46.000Z,27.51
2022-08-09T17:27:35.000Z,28.05
2022-08-09T17:32:45.000Z,27.57
2022-08-09T17:37:39.000Z,27.76
2022-08-09T17:42:52.000Z,27.76
2022-08-09T17:47:40.000Z,28.83
2022-08-09T17:52:37.000Z,30.49
2022-08-09T17:58:14.000Z,29.74
2022-08-09T18:02:41.000Z,29.86
2022-08-09T18:07:40.000Z,31.27
2022-08-09T18:12:50.000Z,28.25
2022-08-09T18:22:35.000Z,27.47
2022-08-09T18:28:16.000Z,28.23
2022-08-09T18:38:04.000Z,29.05
2022-08-09T18:47:47.000Z,30.34
2022-08-09T18:52:45.000Z,25.51
2022-08-09T18:57:54.000Z,27.25
2022-08-09T19:02:42.000Z,28.41
2022-08-09T19:07:36.000Z,28.41
2022-08-09T19:12:35.000Z,27.95
2022-08-09T19:17:41.000Z,30.87
2022-08-09T19:22:36.000Z,28.23
2022-08-09T19:27:38.000Z,30.12
2022-08-09T19:32:39.000Z,30.02
2022-08-09T19:42:38.000Z,32.23
2022-08-09T19:47:37.000Z,32.2
2022-08-09T19:52:36.000Z,32.2
2022-08-09T19:57:36.000Z,31.3
2022-08-09T20:04:34.000Z,26.23
2022-08-09T20:12:47.000Z,27.35
2022-08-09T20:17:41.000Z,28.09
2022-08-09T20:22:45.000Z,33.71
2022-08-09T20:27:39.000Z,33.4
2022-08-09T20:32:43.000Z,33.4
2022-08-09T20:37:34.000Z,28.39
2022-08-09T20:42:34.000Z,28.49
2022-08-09T20:47:58.000Z,26.55
2022-08-09T20:52:34.000Z,26.08
2022-08-09T20:57:42.000Z,25.77
2022-08-09T21:02:35.000Z,27.51
2022-08-09T21:07:48.000Z,25.41
2022-08-09T21:13:08.000Z,25.73
2022-08-09T21:18:36.000Z,25.14
2022-08-09T21:28:01.000Z,24.09
2022-08-09T21:32:45.000Z,23.74
2022-08-09T21:37:45.000Z,22.14
2022-08-09T21:42:38.000Z,22.65
2022-08-09T21:47:36.000Z,21.53
2022-08-09T21:52:34.000Z,20.94
2022-08-09T21:57:48.000Z,20.94
2022-08-09T22:02:46.000Z,20.99
2022-08-09T22:12:41.000Z,20.62
2022-08-09T22:17:35.000Z,21.16
2022-08-09T22:22:35.000Z,20.33
2022-08-09T22:27:34.000Z,21.29
2022-08-09T22:32:41.000Z,19.58
2022-08-09T22:37:37.000Z,19.58
2022-08-09T22:42:34.000Z,19.68
2022-08-09T22:48:45.000Z,19.17
2022-08-09T22:57:45.000Z,18.88
2022-08-09T23:02:35.000Z,18.08
2022-08-09T23:08:33.000Z,18.21
2022-08-09T23:12:34.000Z,18.33
2022-08-09T23:17:35.000Z,18.33
2022-08-09T23:22:35.000Z,18.19
2022-08-09T23:27:35.000Z,17.24
2022-08-09T23:32:34.000Z,17.52
2022-08-09T23:37:45.000Z,16.22
2022-08-09T23:47:35.000Z,15.52
2022-08-09T23:52:35.000Z,14.56
2022-08-09T23:57:34.000Z,14.56
